Time;durP1;ratioP1;P1;durP2;ratioP2;P2;SDS_P1;SDS_P2;PMS_P1;PMS_P2;Temp;Humidity;BMP_temperature;BMP_pressure;BME280_temperature;BME280_humidity;BME280_pressure;Samples;Min_cycle;Max_cycle;Signal;HPM_P1;HPM_P2
2022/07/17 00:00:47;;;;;;;12.73;10.00;;;;;;;29.40;78.91;100792.22;5035214;28;65646;-34
2022/07/17 00:03:19;;;;;;;17.57;9.90;;;;;;;29.36;78.37;100771.22;4984309;28;69809;-36
2022/07/17 00:05:51;;;;;;;11.05;8.95;;;;;;;29.53;77.76;100787.81;4999767;28;66211;-35
2022/07/17 00:08:22;;;;;;;17.85;8.90;;;;;;;29.59;77.43;100792.38;4959759;28;70112;-36
2022/07/17 00:10:53;;;;;;;16.50;9.20;;;;;;;29.64;77.48;100795.28;4964285;28;65943;-36
2022/07/17 00:13:24;;;;;;;20.02;8.32;;;;;;;29.64;77.57;100800.69;4952080;28;70373;-34
2022/07/17 00:15:55;;;;;;;16.15;8.10;;;;;;;29.70;77.13;100805.25;4947134;28;66133;-34
2022/07/17 00:18:26;;;;;;;12.63;8.10;;;;;;;29.71;77.88;100806.09;4969138;28;71152;-35
2022/07/17 00:20:57;;;;;;;12.98;7.75;;;;;;;29.69;78.41;100806.28;5021129;28;65003;-37
2022/07/17 00:23:27;;;;;;;11.15;8.15;;;;;;;29.78;77.87;100826.66;5018934;28;70358;-38
2022/07/17 00:25:58;;;;;;;9.95;7.43;;;;;;;29.81;77.40;100823.50;4958477;28;67749;-37
2022/07/17 00:28:29;;;;;;;20.33;7.65;;;;;;;29.84;78.00;100828.50;4958922;28;70614;-34
2022/07/17 00:31:00;;;;;;;13.85;8.02;;;;;;;29.75;78.53;100813.53;4949447;28;66058;-35
2022/07/17 00:33:32;;;;;;;15.73;6.78;;;;;;;29.90;77.65;100825.97;5009599;28;69998;-37
2022/07/17 00:36:03;;;;;;;13.63;7.70;;;;;;;29.93;77.52;100836.34;4958884;28;66281;-37
2022/07/17 00:38:34;;;;;;;9.57;7.13;;;;;;;29.95;78.45;100839.66;4951163;28;70079;-36
2022/07/17 00:41:05;;;;;;;8.00;6.72;;;;;;;29.93;77.56;100829.06;4947895;28;65250;-37
2022/07/17 00:43:36;;;;;;;10.13;6.40;;;;;;;29.93;77.28;100820.97;4958432;28;71352;-37
2022/07/17 00:46:07;;;;;;;8.38;6.07;;;;;;;30.02;77.21;100835.88;4957664;28;66191;-38
2022/07/17 00:48:38;;;;;;;10.18;6.90;;;;;;;30.05;77.16;100831.91;5004672;28;70342;-37
2022/07/17 00:51:10;;;;;;;9.37;6.80;;;;;;;30.08;77.38;100836.91;4960118;28;66068;-35
2022/07/17 00:53:43;;;;;;;9.38;6.78;;;;;;;30.11;77.18;100839.16;4957882;28;69681;-36
2022/07/17 00:56:17;;;;;;;8.70;6.70;;;;;;;30.14;77.46;100838.72;4959634;28;66369;-36
2022/07/17 00:58:51;;;;;;;12.48;6.75;;;;;;;30.19;77.43;100846.22;5021049;28;68911;-37
2022/07/17 01:01:22;;;;;;;12.82;7.07;;;;;;;30.18;77.13;100845.38;5022578;28;66155;-36
2022/07/17 01:03:53;;;;;;;8.15;6.65;;;;;;;30.19;77.25;100847.03;5011005;28;69382;-37
2022/07/17 01:06:24;;;;;;;9.38;6.85;;;;;;;30.22;76.80;100840.38;4957413;28;65377;-38
2022/07/17 01:08:56;;;;;;;13.90;6.00;;;;;;;30.22;76.67;100846.63;4948804;28;69863;-37
2022/07/17 01:11:26;;;;;;;15.93;7.18;;;;;;;30.16;75.99;100831.22;4958799;28;68118;-37
2022/07/17 01:13:58;;;;;;;11.50;6.82;;;;;;;30.19;75.79;100846.22;4955901;28;69826;-37
2022/07/17 01:16:30;;;;;;;8.60;6.00;;;;;;;30.17;76.01;100849.16;4952321;28;65182;-37
2022/07/17 01:19:01;;;;;;;;;;;;;;;30.00;77.11;100869.59;4958349;28;70883;-37
2022/07/17 01:21:43;;;;;;;7.03;5.28;;;;;;;30.25;76.53;100867.84;4967520;28;66896;-35
2022/07/17 01:24:15;;;;;;;9.65;6.13;;;;;;;30.38;76.33;100874.25;4955543;28;70574;-36
2022/07/17 01:26:47;;;;;;;;;;;;;;;30.10;77.36;100869.97;5011737;28;65798;-38
2022/07/17 01:29:18;;;;;;;9.32;5.55;;;;;;;30.34;77.26;100859.47;5024769;28;69788;-36
2022/07/17 01:31:49;;;;;;;7.82;5.68;;;;;;;30.48;76.34;100867.31;4987958;28;66933;-37
2022/07/17 01:34:20;;;;;;;23.15;5.80;;;;;;;30.50;76.39;100869.78;4959476;28;70270;-37
2022/07/17 01:36:51;;;;;;;9.77;5.68;;;;;;;30.57;76.15;100877.88;4961189;28;66074;-38
2022/07/17 01:39:52;;;;;;;28.60;12.93;;;;;;;30.50;76.25;100875.19;4960608;28;70460;-40
2022/07/17 01:42:13;;;;;;;60.10;27.98;;;;;;;30.64;75.71;100887.59;4948948;28;65609;-37
2022/07/17 01:44:44;;;;;;;95.80;59.58;;;;;;;30.65;75.89;100888.44;4961036;28;70242;-37
2022/07/17 01:47:16;;;;;;;110.45;72.88;;;;;;;30.64;75.07;100876.75;4959879;28;66476;-35
2022/07/17 01:49:48;;;;;;;124.35;86.32;;;;;;;30.70;75.02;100875.91;4960854;28;70084;-36
2022/07/17 01:52:21;;;;;;;135.93;97.65;;;;;;;30.72;75.62;100879.19;5040225;28;66000;-38
2022/07/17 01:54:52;;;;;;;148.98;113.40;;;;;;;30.64;75.77;100862.41;4959774;28;69866;-34
2022/07/17 01:57:23;;;;;;;145.55;117.20;;;;;;;30.77;75.06;100886.69;4960002;28;65461;-37
2022/07/17 01:59:55;;;;;;;;;;;;;;;30.46;76.81;100876.69;4955497;28;70576;-34
2022/07/17 02:02:26;;;;;;;117.32;89.88;;;;;;;30.79;75.77;100878.34;4960585;28;66098;-37
2022/07/17 02:04:57;;;;;;;;;;;;;;;30.50;76.20;100880.59;4956752;28;70278;-36
2022/07/17 02:07:28;;;;;;;93.85;66.30;;;;;;;30.85;75.37;100882.91;4951186;28;66720;-39
2022/07/17 02:09:59;;;;;;;76.78;52.83;;;;;;;30.88;74.94;100882.47;4957397;28;69783;-32
2022/07/17 02:12:30;;;;;;;68.22;48.95;;;;;;;30.92;74.62;100886.38;4960230;28;67440;-35
2022/07/17 02:15:02;;;;;;;64.00;46.78;;;;;;;30.96;74.93;100884.91;4958662;28;69275;-33
2022/07/17 02:17:33;;;;;;;53.25;36.90;;;;;;;30.99;74.79;100884.47;4958123;28;65862;-33
2022/07/17 02:20:05;;;;;;;38.83;29.85;;;;;;;30.98;74.30;100882.81;4951141;28;68985;-33
2022/07/17 02:22:37;;;;;;;35.03;23.55;;;;;;;31.05;74.41;100888.16;4958050;28;67201;-33
2022/07/17 02:25:09;;;;;;;32.97;17.83;;;;;;;31.09;73.61;100882.09;4962020;28;70129;-35
2022/07/17 02:27:41;;;;;;;28.27;15.38;;;;;;;31.13;73.48;100885.19;4958715;28;66143;-33
2022/07/17 02:30:18;;;;;;;34.10;16.30;;;;;;;31.16;72.90;100890.97;4951048;28;68704;-35
2022/07/17 02:32:49;;;;;;;48.15;15.02;;;;;;;31.25;72.27;100887.97;4957496;28;66675;-34
2022/07/17 02:35:20;;;;;;;28.73;13.90;;;;;;;31.25;73.37;100886.09;4958204;28;69610;-35
2022/07/17 02:37:51;;;;;;;20.75;12.70;;;;;;;31.25;72.81;100877.97;5023082;28;65801;-35
2022/07/17 02:40:22;;;;;;;20.95;10.70;;;;;;;31.28;73.04;100876.69;5024984;28;70403;-35
2022/07/17 02:42:53;;;;;;;14.77;10.93;;;;;;;31.24;72.67;100879.03;5014828;28;68169;-35
2022/07/17 02:45:26;;;;;;;11.90;10.27;;;;;;;31.29;72.48;100883.78;4959054;28;69231;-35
2022/07/17 02:47:57;;;;;;;11.50;9.32;;;;;;;31.19;72.31;100864.50;5024845;28;66305;-36
2022/07/17 02:50:28;;;;;;;10.25;8.90;;;;;;;31.24;72.11;100864.66;4953772;28;69607;-37
2022/07/17 02:52:59;;;;;;;17.55;7.90;;;;;;;31.28;72.55;100860.44;4956560;28;67764;-36
2022/07/17 02:55:30;;;;;;;10.05;7.65;;;;;;;31.29;72.05;100860.22;4958127;28;69420;-35
2022/07/17 02:58:01;;;;;;;10.70;7.65;;;;;;;31.36;72.25;100852.03;4959317;28;66604;-35
2022/07/17 03:00:33;;;;;;;9.70;6.63;;;;;;;31.31;72.22;100859.97;4958994;28;70421;-35
2022/07/17 03:03:03;;;;;;;7.00;6.27;;;;;;;31.29;71.89;100862.94;4958034;28;65801;-35
2022/07/17 03:05:34;;;;;;;9.50;6.25;;;;;;;31.33;72.11;100852.47;4959563;28;70168;-34
2022/07/17 03:08:05;;;;;;;10.23;6.32;;;;;;;31.35;71.96;100844.94;4957344;28;66027;-34
2022/07/17 03:10:36;;;;;;;7.72;6.28;;;;;;;31.34;71.80;100835.13;4954179;28;69800;-34
2022/07/17 03:13:07;;;;;;;9.33;6.00;;;;;;;31.34;71.54;100835.13;4956886;28;65150;-34
2022/07/17 03:15:38;;;;;;;12.53;5.70;;;;;;;31.33;70.62;100826.19;4957107;28;69596;-33
2022/07/17 03:18:09;;;;;;;14.57;5.43;;;;;;;31.35;70.05;100825.97;4956185;28;65673;-34
2022/07/17 03:20:40;;;;;;;7.85;5.65;;;;;;;31.35;69.36;100828.69;4958724;28;70136;-34
2022/07/17 03:23:11;;;;;;;5.87;4.90;;;;;;;31.33;69.12;100828.91;4959897;28;65673;-34
2022/07/17 03:25:42;;;;;;;5.13;4.57;;;;;;;31.39;68.70;100841.56;4957882;28;71834;-35
2022/07/17 03:28:15;;;;;;;8.07;5.70;;;;;;;31.37;68.39;100837.44;4958507;28;66249;-33
2022/07/17 03:30:46;;;;;;;10.40;6.85;;;;;;;31.43;67.82;100836.56;4960367;28;71743;-33
2022/07/17 03:33:17;;;;;;;14.27;6.93;;;;;;;31.44;68.27;100830.06;5027044;28;66185;-35
2022/07/17 03:35:48;;;;;;;11.10;6.95;;;;;;;31.46;68.10;100827.13;5026417;28;69043;-33
2022/07/17 03:38:19;;;;;;;12.25;6.00;;;;;;;31.34;68.59;100813.47;5022972;28;66262;-34
2022/07/17 03:40:50;;;;;;;9.77;6.63;;;;;;;31.52;68.33;100835.19;5015650;28;70316;-34
2022/07/17 03:43:21;;;;;;;6.38;5.78;;;;;;;31.39;68.20;100811.75;4960408;28;65518;-35
2022/07/17 03:45:52;;;;;;;6.63;5.53;;;;;;;31.48;68.63;100816.88;4948674;28;69709;-35
2022/07/17 03:48:24;;;;;;;10.18;5.78;;;;;;;31.53;68.47;100815.16;4957539;28;66484;-35
2022/07/17 03:50:55;;;;;;;10.68;5.65;;;;;;;31.50;68.38;100802.03;4955715;28;69706;-34
2022/07/17 03:53:26;;;;;;;7.68;5.85;;;;;;;31.61;68.84;100812.13;4964289;28;65948;-33
2022/07/17 03:55:57;;;;;;;10.98;5.82;;;;;;;31.71;68.77;100821.63;5019678;28;69212;-34
2022/07/17 03:58:28;;;;;;;14.90;5.90;;;;;;;31.71;69.11;100799.94;4959690;28;66324;-34
2022/07/17 04:01:00;;;;;;;10.38;6.93;;;;;;;31.81;68.71;100811.88;4970359;28;69959;-34
2022/07/17 04:03:31;;;;;;;11.70;6.47;;;;;;;31.88;68.58;100806.38;4957607;28;66391;-34
2022/07/17 04:06:03;;;;;;;14.25;6.68;;;;;;;31.91;68.38;100810.53;5022055;28;70641;-36
2022/07/17 04:08:35;;;;;;;10.80;6.88;;;;;;;31.87;68.41;100799.28;4953641;28;66492;-35
2022/07/17 04:11:06;;;;;;;15.98;6.75;;;;;;;31.86;68.17;100796.81;4952831;28;69975;-34
2022/07/17 04:13:38;;;;;;;11.80;6.43;;;;;;;31.95;68.00;100815.28;4957446;28;65462;-34
2022/07/17 04:16:10;;;;;;;6.43;5.43;;;;;;;31.95;67.55;100806.31;4957187;28;69575;-34
2022/07/17 04:18:41;;;;;;;10.57;5.70;;;;;;;31.92;67.60;100806.78;4959086;28;66509;-34
2022/07/17 04:21:13;;;;;;;7.35;5.55;;;;;;;31.90;67.12;100798.84;4958830;28;70208;-35
2022/07/17 04:23:44;;;;;;;9.82;5.35;;;;;;;31.99;67.27;100804.81;5021746;28;65981;-35
2022/07/17 04:26:14;;;;;;;9.95;5.22;;;;;;;31.99;67.24;100800.22;4957686;28;69345;-36
2022/07/17 04:28:46;;;;;;;8.82;5.15;;;;;;;31.94;67.10;100794.66;4962820;28;66748;-35
2022/07/17 04:31:17;;;;;;;10.45;5.35;;;;;;;32.00;66.60;100799.16;4951980;28;70582;-35
2022/07/17 04:33:52;;;;;;;12.82;5.57;;;;;;;31.99;66.50;100800.22;5023715;28;65719;-35
2022/07/17 04:36:23;;;;;;;7.45;5.05;;;;;;;32.03;66.16;100787.81;5023119;28;70179;-34
2022/07/17 04:38:54;;;;;;;6.55;5.10;;;;;;;32.03;66.65;100793.25;4957974;28;67602;-34
2022/07/17 04:41:25;;;;;;;9.02;4.70;;;;;;;32.05;66.27;100790.31;4957732;28;70375;-36
2022/07/17 04:43:56;;;;;;;6.95;4.72;;;;;;;31.98;66.87;100781.44;4949044;28;66436;-34
2022/07/17 04:46:27;;;;;;;6.55;5.05;;;;;;;31.96;67.26;100776.25;4947932;28;69630;-37
2022/07/17 04:48:59;;;;;;;5.25;4.22;;;;;;;31.96;66.86;100776.25;5024743;28;65759;-35
2022/07/17 04:51:30;;;;;;;10.07;5.90;;;;;;;32.05;66.82;100780.28;5017840;28;68880;-35
2022/07/17 04:54:01;;;;;;;12.25;10.38;;;;;;;32.08;65.76;100772.75;5025086;28;65550;-37
2022/07/17 04:56:32;;;;;;;20.03;9.60;;;;;;;32.10;66.67;100773.38;4948105;28;70198;-35
2022/07/17 04:59:03;;;;;;;13.70;8.27;;;;;;;32.10;66.59;100779.59;4958092;28;66594;-32
2022/07/17 05:01:34;;;;;;;11.50;6.90;;;;;;;32.00;66.44;100758.44;4959271;28;69696;-34
2022/07/17 05:04:06;;;;;;;11.30;6.47;;;;;;;32.10;67.35;100770.66;5020978;28;66637;-34
2022/07/17 05:06:36;;;;;;;8.48;6.47;;;;;;;32.02;67.81;100739.25;5021582;28;69217;-35
2022/07/17 05:09:08;;;;;;;24.47;7.10;;;;;;;32.15;67.92;100759.91;4957161;28;65553;-36
2022/07/17 05:11:39;;;;;;;7.47;6.35;;;;;;;32.17;67.51;100758.59;4957886;28;69759;-34
2022/07/17 05:14:10;;;;;;;14.73;6.95;;;;;;;32.22;68.13;100747.06;5017098;28;65419;-35
2022/07/17 05:16:41;;;;;;;19.08;7.82;;;;;;;32.27;68.59;100744.50;4957717;28;70417;-34
2022/07/17 05:19:12;;;;;;;12.35;6.90;;;;;;;32.25;67.95;100736.56;5020224;28;67332;-38
2022/07/17 05:21:43;;;;;;;12.37;6.40;;;;;;;32.06;66.90;100743.13;4965990;28;70281;-38
2022/07/17 05:24:14;;;;;;;10.70;6.43;;;;;;;31.89;66.23;100728.53;4954104;28;65745;-40
2022/07/17 05:26:45;;;;;;;8.80;5.85;;;;;;;31.75;65.08;100720.59;4954311;28;69938;-38
2022/07/17 05:29:16;;;;;;;11.43;6.33;;;;;;;31.50;64.39;100695.50;4955881;28;66291;-34
2022/07/17 05:31:47;;;;;;;21.95;5.43;;;;;;;31.34;64.60;100683.34;4955289;28;70783;-35
2022/07/17 05:34:18;;;;;;;15.10;5.60;;;;;;;31.41;64.35;100697.69;4952268;28;66440;-34
2022/07/17 05:36:49;;;;;;;30.02;6.40;;;;;;;31.40;63.03;100701.47;4952247;28;70179;-33
2022/07/17 05:39:21;;;;;;;16.67;6.00;;;;;;;31.38;62.36;100698.16;4947654;28;66303;-33
2022/07/17 05:41:52;;;;;;;19.45;7.05;;;;;;;31.27;61.65;100686.16;4957785;28;71559;-36
2022/07/17 05:44:23;;;;;;;11.60;6.00;;;;;;;31.19;60.93;100689.19;4958123;28;65969;-35
2022/07/17 05:46:54;;;;;;;10.73;6.60;;;;;;;31.14;60.60;100686.31;4957245;28;69664;-35
2022/07/17 05:49:25;;;;;;;6.65;5.85;;;;;;;30.98;59.84;100682.34;4958406;28;65616;-37
2022/07/17 05:51:56;;;;;;;12.23;5.55;;;;;;;31.02;59.35;100705.22;4955602;28;70125;-35
2022/07/17 05:54:27;;;;;;;11.40;4.97;;;;;;;30.93;58.29;100690.31;4962880;28;65791;-35
2022/07/17 05:56:57;;;;;;;8.40;4.90;;;;;;;30.94;57.92;100689.25;5021317;28;69929;-35
2022/07/17 05:59:34;;;;;;;8.68;4.82;;;;;;;30.90;57.21;100688.91;5006232;28;67069;-35
2022/07/17 06:02:06;;;;;;;5.13;4.63;;;;;;;30.85;57.08;100682.50;4957147;28;69788;-36
2022/07/17 06:04:37;;;;;;;4.43;4.03;;;;;;;30.75;56.41;100661.31;4958526;28;67026;-37
2022/07/17 06:07:08;;;;;;;4.30;3.20;;;;;;;30.88;56.82;100660.38;4967868;28;69140;-37
2022/07/17 06:09:39;;;;;;;6.90;2.83;;;;;;;30.99;56.63;100656.91;4962667;28;66339;-35
2022/07/17 06:12:11;;;;;;;5.00;2.80;;;;;;;31.05;56.07;100649.75;4959502;28;69147;-34
2022/07/17 06:14:42;;;;;;;7.13;3.03;;;;;;;31.15;54.46;100645.47;4956441;28;65847;-35
2022/07/17 06:17:13;;;;;;;3.63;3.00;;;;;;;31.24;54.61;100654.09;4958191;28;70681;-38
2022/07/17 06:19:44;;;;;;;6.30;3.00;;;;;;;31.22;52.48;100649.97;4961399;28;65233;-35
2022/07/17 06:22:15;;;;;;;4.43;3.23;;;;;;;31.32;53.00;100651.09;5024568;28;70385;-36
2022/07/17 06:24:47;;;;;;;3.05;2.75;;;;;;;31.28;52.70;100628.19;4961679;28;65652;-34
2022/07/17 06:27:18;;;;;;;3.25;2.78;;;;;;;31.42;52.92;100639.72;4960954;28;70460;-35
2022/07/17 06:29:50;;;;;;;3.72;2.80;;;;;;;31.43;51.86;100624.28;4950025;28;66962;-34
2022/07/17 06:32:25;;;;;;;3.80;2.75;;;;;;;31.51;51.74;100630.22;4960271;28;69863;-34
2022/07/17 06:34:56;;;;;;;4.78;2.30;;;;;;;31.53;51.51;100614.53;4946993;28;65514;-36
2022/07/17 06:37:27;;;;;;;2.83;2.63;;;;;;;31.54;51.19;100601.81;4960161;28;69958;-34
2022/07/17 06:39:58;;;;;;;5.43;2.83;;;;;;;31.60;50.67;100599.00;4950890;28;65377;-34
2022/07/17 06:42:29;;;;;;;3.83;2.45;;;;;;;31.63;50.22;100596.88;5023453;28;70055;-35
2022/07/17 06:45:00;;;;;;;3.03;2.53;;;;;;;31.63;50.10;100595.00;5027199;28;65047;-34
2022/07/17 06:47:31;;;;;;;2.50;2.30;;;;;;;31.67;49.83;100587.22;4956666;28;70213;-35
2022/07/17 06:50:02;;;;;;;6.07;2.22;;;;;;;31.68;49.35;100594.28;5023358;28;65502;-33
2022/07/17 06:52:33;;;;;;;2.97;2.55;;;;;;;31.70;48.99;100587.56;4960725;28;70325;-36
2022/07/17 06:55:06;;;;;;;3.05;2.72;;;;;;;31.71;49.28;100572.16;5008587;28;66116;-35
2022/07/17 06:57:38;;;;;;;4.53;2.42;;;;;;;31.69;48.63;100563.41;5013321;28;69570;-35
2022/07/17 07:00:10;;;;;;;2.88;2.08;;;;;;;31.79;48.55;100564.50;5022172;28;66040;-37
2022/07/17 07:02:40;;;;;;;;;;;;;;;31.39;46.17;100526.34;4967775;28;70450;-35
2022/07/17 07:05:11;;;;;;;3.63;2.47;;;;;;;31.68;47.78;100540.06;5022426;28;66114;-36
2022/07/17 07:07:43;;;;;;;4.28;2.38;;;;;;;31.82;47.29;100552.34;5020266;28;68962;-38
2022/07/17 07:10:15;;;;;;;3.03;2.42;;;;;;;31.87;47.68;100549.72;5005585;28;66586;-36
2022/07/17 07:12:46;;;;;;;3.40;1.88;;;;;;;31.78;47.59;100540.31;4953688;28;68752;-43
2022/07/17 07:15:18;;;;;;;;;;;;;;;31.69;45.30;100547.16;5023387;28;66145;-34
2022/07/17 07:17:48;;;;;;;2.50;2.30;;;;;;;31.89;46.56;100542.19;4952721;28;69396;-36
2022/07/17 07:20:20;;;;;;;3.77;2.57;;;;;;;31.89;46.18;100546.81;4957421;28;66179;-36
2022/07/17 07:22:51;;;;;;;2.92;1.95;;;;;;;31.89;46.49;100542.19;5021350;28;70615;-36
2022/07/17 07:25:25;;;;;;;2.75;2.50;;;;;;;31.92;46.39;100533.63;5018170;28;66231;-37
2022/07/17 07:27:56;;;;;;;2.45;2.15;;;;;;;31.82;46.32;100523.34;4994654;28;70200;-35
2022/07/17 07:30:27;;;;;;;3.50;2.17;;;;;;;31.93;45.54;100531.72;5016989;28;66331;-35
2022/07/17 07:32:58;;;;;;;2.70;2.10;;;;;;;31.92;44.85;100539.03;4954057;28;69265;-36
2022/07/17 07:35:29;;;;;;;2.47;1.63;;;;;;;31.92;44.88;100536.31;4952513;28;65721;-34
2022/07/17 07:38:00;;;;;;;5.15;2.28;;;;;;;31.91;45.06;100523.84;4986587;28;69769;-36
2022/07/17 07:40:32;;;;;;;2.53;1.70;;;;;;;31.92;44.12;100520.06;5022223;28;66138;-35
2022/07/17 07:43:03;;;;;;;2.60;1.90;;;;;;;31.87;44.54;100511.75;4956927;28;69901;-36
2022/07/17 07:45:35;;;;;;;3.08;2.10;;;;;;;31.95;44.46;100526.91;5022250;28;66089;-35
2022/07/17 07:48:07;;;;;;;2.22;1.90;;;;;;;31.81;45.08;100501.88;4955381;28;69147;-34
2022/07/17 07:50:38;;;;;;;3.10;2.20;;;;;;;31.96;44.23;100506.88;4956668;28;66137;-36
2022/07/17 07:53:10;;;;;;;2.50;1.90;;;;;;;31.88;43.90;100499.88;4952695;28;69071;-37
2022/07/17 07:55:41;;;;;;;2.03;1.83;;;;;;;31.93;43.63;100494.59;5020352;28;65734;-38
2022/07/17 07:58:13;;;;;;;2.92;1.98;;;;;;;31.97;44.22;100501.19;4955603;28;69073;-36
2022/07/17 08:00:46;;;;;;;2.40;1.95;;;;;;;31.92;43.72;100498.34;4967685;28;65578;-36
2022/07/17 08:03:17;;;;;;;3.42;2.10;;;;;;;31.95;44.25;100506.00;5021357;28;69794;-36
2022/07/17 08:05:53;;;;;;;2.40;2.08;;;;;;;31.81;44.40;100474.75;5022095;28;66448;-34
2022/07/17 08:08:26;;;;;;;4.38;2.20;;;;;;;31.98;44.09;100492.00;5007228;28;70055;-33
2022/07/17 08:10:57;;;;;;;2.40;2.20;;;;;;;31.97;44.16;100490.34;4956388;28;66108;-36
2022/07/17 08:13:28;;;;;;;6.40;2.13;;;;;;;31.97;43.95;100501.19;4974435;28;69247;-38
2022/07/17 08:15:59;;;;;;;1.98;1.80;;;;;;;31.99;44.17;100499.06;5020715;28;66115;-37
2022/07/17 08:18:31;;;;;;;2.95;2.17;;;;;;;31.98;44.09;100497.44;5015402;28;69210;-36
2022/07/17 08:21:03;;;;;;;3.35;2.05;;;;;;;31.95;43.75;100492.44;5022535;28;66368;-38
2022/07/17 08:23:34;;;;;;;2.10;1.77;;;;;;;31.94;43.92;100495.41;4963699;28;70081;-37
2022/07/17 08:26:05;;;;;;;4.78;1.92;;;;;;;31.89;43.91;100482.53;5020034;28;66494;-38
2022/07/17 08:28:39;;;;;;;2.75;1.80;;;;;;;31.88;43.49;100494.44;5021660;28;69014;-36
2022/07/17 08:31:11;;;;;;;2.63;2.30;;;;;;;31.81;44.23;100489.13;5012702;28;65872;-37
2022/07/17 08:33:42;;;;;;;2.47;1.97;;;;;;;31.87;43.26;100511.75;5018877;28;69242;-35
2022/07/17 08:36:13;;;;;;;3.17;2.00;;;;;;;31.81;44.56;100518.13;4953768;28;66475;-36
2022/07/17 08:38:45;;;;;;;5.10;2.65;;;;;;;31.77;44.84;100506.94;5020027;28;69454;-35
2022/07/17 08:41:17;;;;;;;4.65;2.67;;;;;;;31.76;45.28;100520.72;4975587;28;65911;-37
2022/07/17 08:43:50;;;;;;;3.15;2.00;;;;;;;31.77;45.11;100519.69;5018468;28;69377;-38
2022/07/17 08:46:25;;;;;;;2.70;2.25;;;;;;;31.76;45.03;100515.28;5006921;28;66085;-34
2022/07/17 08:48:59;;;;;;;8.73;3.88;;;;;;;31.76;55.24;100520.72;4958070;28;69593;-37
2022/07/17 08:51:30;;;;;;;10.13;4.00;;;;;;;31.88;59.80;100512.63;4954357;28;66037;-37
2022/07/17 08:54:02;;;;;;;11.88;4.68;;;;;;;31.95;61.10;100524.19;4951874;28;69290;-33
2022/07/17 08:56:33;;;;;;;28.50;5.13;;;;;;;32.02;62.52;100531.16;5008318;28;67034;-36
2022/07/17 08:59:04;;;;;;;22.25;5.07;;;;;;;32.11;62.99;100536.22;4959059;28;69925;-34
2022/07/17 09:01:34;;;;;;;14.15;5.50;;;;;;;32.13;62.78;100534.91;4959472;28;65592;-34
2022/07/17 09:04:06;;;;;;;13.63;4.47;;;;;;;32.19;61.93;100520.41;4952071;28;69945;-38
2022/07/17 09:06:37;;;;;;;11.18;4.07;;;;;;;32.39;61.34;100522.72;4954007;28;65585;-35
2022/07/17 09:09:12;;;;;;;8.18;4.68;;;;;;;32.51;61.02;100521.91;4948718;28;71666;-36
2022/07/17 09:11:50;;;;;;;7.68;3.53;;;;;;;32.66;60.67;100538.50;4959532;28;66445;-37
2022/07/17 09:14:22;;;;;;;12.93;4.10;;;;;;;32.77;59.79;100543.09;4957981;28;69962;-36
2022/07/17 09:16:54;;;;;;;;;;;;;;;32.62;60.92;100540.06;5012722;28;66770;-36
2022/07/17 09:19:34;;;;;;;15.70;4.22;;;;;;;32.75;59.96;100519.94;5019871;28;69950;-35
2022/07/17 09:22:09;;;;;;;6.88;3.83;;;;;;;32.98;59.34;100533.41;5022482;28;65944;-37
2022/07/17 09:24:44;;;;;;;13.52;3.70;;;;;;;33.05;59.21;100527.88;5018518;28;70052;-36
2022/07/17 09:27:31;;;;;;;6.10;3.90;;;;;;;32.99;61.36;100534.25;4954763;28;66097;-35
2022/07/17 09:30:09;;;;;;;4.93;4.22;;;;;;;32.69;62.54;100487.25;4952307;28;70431;-33
2022/07/17 09:32:42;;;;;;;9.98;4.40;;;;;;;32.76;63.57;100522.41;4956840;28;65585;-34
2022/07/17 09:35:13;;;;;;;8.85;4.53;;;;;;;32.73;64.26;100541.91;4997320;28;69952;-33
2022/07/17 09:37:44;;;;;;;16.40;4.10;;;;;;;32.61;64.67;100528.38;4957170;28;67190;-35
2022/07/17 09:43:12;;;;;;;10.02;3.83;;;;;;;32.45;65.55;100529.91;4953706;28;66284;-34
2022/07/17 09:45:43;;;;;;;7.95;4.38;;;;;;;32.51;65.96;100555.31;4957718;28;69641;-33
2022/07/17 09:48:15;;;;;;;8.77;4.00;;;;;;;32.38;65.90;100531.13;4960759;28;67361;-34
2022/07/17 09:50:46;;;;;;;7.40;4.25;;;;;;;32.52;65.54;100539.84;4957217;28;69937;-35
2022/07/17 09:53:18;;;;;;;8.93;4.10;;;;;;;32.47;65.24;100530.53;5031092;28;66416;-34
2022/07/17 09:55:55;;;;;;;8.68;3.38;;;;;;;32.36;64.85;100522.38;4965780;28;69457;-40
2022/07/17 09:58:27;;;;;;;6.03;3.40;;;;;;;32.20;65.38;100532.91;4960115;28;66157;-36
2022/07/17 10:00:59;;;;;;;4.80;4.40;;;;;;;32.13;65.55;100547.66;4960197;28;69475;-35
2022/07/17 10:03:30;;;;;;;5.72;3.25;;;;;;;32.10;65.87;100559.00;5040197;28;65955;-35
2022/07/17 10:06:02;;;;;;;4.22;3.80;;;;;;;32.01;66.43;100553.94;4960073;28;69664;-35
2022/07/17 10:08:35;;;;;;;7.15;3.97;;;;;;;32.04;67.04;100553.44;4981966;28;66376;-38
2022/07/17 10:11:08;;;;;;;13.82;3.30;;;;;;;31.54;67.55;100467.09;4957258;28;70196;-35
2022/07/17 10:13:40;;;;;;;5.80;3.47;;;;;;;31.99;67.35;100547.09;4947118;28;66128;-35
2022/07/17 10:16:13;;;;;;;4.38;3.42;;;;;;;32.03;68.10;100565.34;4958874;28;70023;-34
2022/07/17 10:18:45;;;;;;;5.68;3.65;;;;;;;31.61;68.65;100496.78;5035812;28;66607;-35
2022/07/17 10:21:21;;;;;;;5.43;3.15;;;;;;;32.02;68.42;100566.41;4972054;28;69405;-35
2022/07/17 10:23:53;;;;;;;4.05;3.63;;;;;;;32.02;69.07;100582.69;4958790;28;66559;-35
2022/07/17 10:26:38;;;;;;;3.97;3.67;;;;;;;31.74;68.93;100539.13;5024745;28;69354;-35
2022/07/17 10:29:29;;;;;;;9.07;3.97;;;;;;;31.49;68.99;100510.34;4959768;28;65954;-34
2022/07/17 10:32:02;;;;;;;4.05;3.53;;;;;;;32.12;67.38;100590.22;4958436;28;69682;-35
2022/07/17 10:34:39;;;;;;;7.45;3.58;;;;;;;31.75;67.65;100521.78;4952179;28;66445;-35
2022/07/17 10:37:23;;;;;;;8.25;3.30;;;;;;;32.27;67.24;100598.75;4962196;28;70197;-36
2022/07/17 10:40:04;;;;;;;5.90;3.25;;;;;;;32.13;66.54;100569.38;4959467;28;65338;-34
2022/07/17 10:42:50;;;;;;;5.37;3.43;;;;;;;32.43;66.06;100608.06;4956111;28;70152;-34
2022/07/17 10:45:26;;;;;;;4.70;3.38;;;;;;;32.01;65.67;100534.94;4950569;28;66685;-33
2022/07/17 10:48:00;;;;;;;4.22;3.33;;;;;;;32.13;65.36;100542.25;4960731;28;70522;-34
2022/07/17 10:50:41;;;;;;;6.80;4.28;;;;;;;32.62;65.48;100625.06;4970871;28;66539;-36
2022/07/17 10:53:20;;;;;;;6.38;3.75;;;;;;;32.57;65.31;100607.81;4960614;28;69041;-35
2022/07/17 10:56:07;;;;;;;8.20;4.22;;;;;;;32.24;65.33;100544.13;4957341;28;66045;-35
2022/07/17 10:58:41;;;;;;;7.50;4.35;;;;;;;32.70;64.90;100618.44;4958563;28;70367;-35
2022/07/17 11:01:15;;;;;;;4.57;3.90;;;;;;;32.72;64.39;100622.56;4956987;28;66718;-34
2022/07/17 11:03:52;;;;;;;4.88;4.13;;;;;;;32.74;64.76;100630.50;4957166;28;70434;-33
2022/07/17 11:06:24;;;;;;;4.75;4.35;;;;;;;32.74;64.83;100622.34;4960967;28;66296;-35
2022/07/17 11:09:02;;;;;;;4.63;4.10;;;;;;;32.57;65.31;100589.66;4972033;28;71023;-36
2022/07/17 11:11:51;;;;;;;6.70;4.43;;;;;;;32.33;64.80;100547.28;5005343;28;66384;-35
2022/07/17 11:14:27;;;;;;;4.80;4.15;;;;;;;32.75;64.62;100604.97;4958179;28;69465;-37
2022/07/17 11:16:58;;;;;;;5.07;4.20;;;;;;;32.76;64.74;100613.94;4958366;28;65616;-36
2022/07/17 11:19:34;;;;;;;7.18;4.60;;;;;;;32.34;64.85;100549.75;4957706;28;70944;-35
2022/07/17 11:22:09;;;;;;;5.22;4.25;;;;;;;32.33;64.75;100548.13;4954802;28;65528;-34
2022/07/17 11:24:48;;;;;;;6.25;4.82;;;;;;;32.73;65.37;100623.38;4958334;28;70040;-36
2022/07/17 11:27:23;;;;;;;4.70;4.30;;;;;;;32.72;65.13;100610.88;4958954;28;66422;-36
2022/07/17 11:29:57;;;;;;;8.15;5.15;;;;;;;32.16;66.23;100539.88;4954612;28;69604;-34
2022/07/17 11:32:39;;;;;;;7.03;5.60;;;;;;;32.54;67.79;100619.16;4958260;28;65957;-35
2022/07/17 11:35:22;;;;;;;6.88;5.63;;;;;;;32.43;68.49;100613.50;5023473;28;69945;-38
2022/07/17 11:38:10;;;;;;;9.00;5.25;;;;;;;32.37;69.36;100611.72;5009234;28;66413;-34
2022/07/17 11:40:50;;;;;;;6.32;5.68;;;;;;;32.25;69.65;100613.59;5006073;28;71374;-35
2022/07/17 11:43:40;;;;;;;5.88;5.38;;;;;;;32.14;70.11;100617.97;4957092;28;65715;-35
2022/07/17 11:46:11;;;;;;;7.03;5.45;;;;;;;32.14;70.56;100614.44;4952975;28;69922;-34
2022/07/17 11:48:44;;;;;;;8.15;5.00;;;;;;;32.08;71.02;100607.25;4958906;28;65905;-35